createdAt,value
2023-02-19T00:00:06.740Z,95203.31
2023-02-19T00:02:46.762Z,95200.47
2023-02-19T00:05:16.022Z,95199.25
2023-02-19T00:07:45.186Z,95202.25
2023-02-19T00:10:14.226Z,95205.50
2023-02-19T00:12:43.315Z,95202.44
2023-02-19T00:15:12.377Z,95195.75
2023-02-19T00:17:41.328Z,95192.94
2023-02-19T00:20:12.389Z,95192.94
2023-02-19T00:22:41.356Z,95185.81
2023-02-19T00:25:10.529Z,95178.94
2023-02-19T00:27:39.563Z,95181.19
2023-02-19T00:30:09.355Z,95169.50
2023-02-19T00:32:38.412Z,95163.84
2023-02-19T00:35:07.993Z,95161.22
2023-02-19T00:37:38.283Z,95161.03
2023-02-19T00:40:08.109Z,95158.22
2023-02-19T00:42:37.280Z,95159.22
2023-02-19T00:45:06.801Z,95165.28
2023-02-19T00:47:35.891Z,95169.94
2023-02-19T00:50:05.137Z,95161.44
2023-02-19T00:52:34.218Z,95173.69
2023-02-19T00:55:04.810Z,95172.81
2023-02-19T00:57:33.905Z,95178.25
2023-02-19T01:00:02.874Z,95173.81
2023-02-19T01:02:34.918Z,95168.00
2023-02-19T01:05:03.923Z,95165.00
2023-02-19T01:07:33.083Z,95166.00
2023-02-19T01:10:04.137Z,95178.91
2023-02-19T01:12:33.437Z,95169.44
2023-02-19T01:15:02.590Z,95181.31
2023-02-19T01:17:33.429Z,95179.94
2023-02-19T01:20:02.336Z,95183.13
2023-02-19T01:22:32.060Z,95187.13
2023-02-19T01:25:01.244Z,95196.19
2023-02-19T01:27:33.550Z,95194.91
2023-02-19T01:30:02.600Z,95199.13
2023-02-19T01:32:32.753Z,95200.06
2023-02-19T01:35:01.766Z,95200.22
2023-02-19T01:37:32.718Z,95194.97
2023-02-19T01:40:01.748Z,95189.53
2023-02-19T01:42:34.030Z,95196.03
2023-02-19T01:45:28.493Z,95186.94
2023-02-19T01:48:03.991Z,95188.19
2023-02-19T01:50:37.697Z,95188.66
2023-02-19T01:53:11.465Z,95192.72
2023-02-19T01:55:42.172Z,95192.59
2023-02-19T01:58:12.878Z,95204.13
2023-02-19T02:00:42.302Z,95185.81
2023-02-19T02:03:12.087Z,95183.63
2023-02-19T02:05:55.549Z,95189.44
2023-02-19T02:08:42.598Z,95180.00
2023-02-19T02:11:11.820Z,95176.75
2023-02-19T02:13:42.528Z,95178.69
2023-02-19T02:16:24.455Z,95175.94
2023-02-19T02:19:14.257Z,95177.13
2023-02-19T02:22:03.237Z,95180.56
2023-02-19T02:25:04.238Z,95183.63
2023-02-19T02:27:45.264Z,95179.19
2023-02-19T02:30:27.330Z,95187.06
2023-02-19T02:33:00.423Z,95186.06
2023-02-19T02:35:35.699Z,95183.81
2023-02-19T02:38:13.706Z,95181.81
2023-02-19T02:40:46.518Z,95181.78
2023-02-19T02:43:17.782Z,95184.63
2023-02-19T02:45:48.441Z,95185.22
2023-02-19T02:48:43.176Z,95180.38
2023-02-19T02:51:18.428Z,95186.81
2023-02-19T02:54:17.184Z,95187.63
2023-02-19T02:56:49.551Z,95184.38
2023-02-19T02:59:21.749Z,95188.38
2023-02-19T03:02:12.657Z,95185.19
2023-02-19T03:05:08.472Z,95194.81
2023-02-19T03:07:40.732Z,95190.72
2023-02-19T03:10:14.632Z,95198.53
2023-02-19T03:13:03.900Z,95194.41
2023-02-19T03:15:56.276Z,95197.16
2023-02-19T03:18:49.315Z,95196.06
2023-02-19T03:21:20.812Z,95210.16
2023-02-19T03:24:08.003Z,95209.84
2023-02-19T03:26:39.667Z,95202.34
2023-02-19T03:29:26.293Z,95213.25
2023-02-19T03:32:08.588Z,95212.97
2023-02-19T03:34:44.524Z,95214.78
2023-02-19T03:37:17.886Z,95217.38
2023-02-19T03:39:47.753Z,95218.72
2023-02-19T03:42:29.816Z,95221.97
2023-02-19T03:45:11.096Z,95224.34
2023-02-19T03:47:50.175Z,95222.31
2023-02-19T03:50:26.835Z,95224.72
2023-02-19T03:53:05.266Z,95220.59
2023-02-19T03:55:46.055Z,95229.41
2023-02-19T03:58:21.516Z,95230.56
2023-02-19T04:00:58.851Z,95229.41
2023-02-19T04:03:35.522Z,95228.94
2023-02-19T04:06:11.472Z,95230.50
2023-02-19T04:08:43.978Z,95230.50
2023-02-19T04:11:14.594Z,95233.13
2023-02-19T04:13:47.444Z,95229.16
2023-02-19T04:16:23.137Z,95239.25
2023-02-19T04:18:56.829Z,95237.88
2023-02-19T04:21:30.772Z,95238.50
2023-02-19T04:24:03.977Z,95238.94
2023-02-19T04:26:34.699Z,95237.56
2023-02-19T04:29:03.920Z,95229.56
2023-02-19T04:31:36.707Z,95238.16
2023-02-19T04:34:05.947Z,95241.13
2023-02-19T04:36:36.720Z,95244.31
2023-02-19T04:39:05.835Z,95240.94
2023-02-19T04:41:35.039Z,95240.78
2023-02-19T04:44:04.186Z,95245.06
2023-02-19T04:46:33.369Z,95239.63
2023-02-19T04:49:02.371Z,95249.97
2023-02-19T04:51:31.354Z,95250.22
2023-02-19T04:54:02.013Z,95253.84
2023-02-19T04:56:30.874Z,95252.09
2023-02-19T04:59:00.020Z,95251.13
2023-02-19T05:01:29.277Z,95253.22
2023-02-19T05:03:58.303Z,95256.56
2023-02-19T05:06:27.701Z,95254.34
2023-02-19T05:08:56.638Z,95246.91
2023-02-19T05:11:27.225Z,95248.97
2023-02-19T05:13:57.078Z,95250.81
2023-02-19T05:16:27.106Z,95246.63
2023-02-19T05:18:56.129Z,95252.16
2023-02-19T05:21:25.022Z,95249.72
2023-02-19T05:23:54.079Z,95254.22
2023-02-19T05:26:25.162Z,95254.09
2023-02-19T05:28:55.577Z,95246.66
2023-02-19T05:31:25.108Z,95250.75
2023-02-19T05:33:56.353Z,95261.34
2023-02-19T05:36:25.550Z,95254.50
2023-02-19T05:38:55.661Z,95262.19
2023-02-19T05:41:26.401Z,95263.13
2023-02-19T05:43:58.344Z,95260.09
2023-02-19T05:46:29.764Z,95264.34
2023-02-19T05:48:59.657Z,95271.84
2023-02-19T05:51:29.578Z,95267.81
2023-02-19T05:53:59.151Z,95270.81
2023-02-19T05:56:34.452Z,95280.16
2023-02-19T05:59:08.177Z,95282.94
2023-02-19T06:01:40.123Z,95276.84
2023-02-19T06:04:09.094Z,95286.31
2023-02-19T06:06:38.587Z,95292.97
2023-02-19T06:09:08.840Z,95292.56
2023-02-19T06:11:38.194Z,95302.47
2023-02-19T06:14:08.902Z,95291.97
2023-02-19T06:16:37.940Z,95303.53
2023-02-19T06:19:07.085Z,95307.84
2023-02-19T06:21:36.523Z,95307.25
2023-02-19T06:24:10.029Z,95302.81
2023-02-19T06:26:39.938Z,95313.16
2023-02-19T06:29:10.540Z,95313.16
2023-02-19T06:31:39.651Z,95316.56
2023-02-19T06:34:08.678Z,95310.69
2023-02-19T06:36:37.928Z,95316.75
2023-02-19T06:39:07.818Z,95313.88
2023-02-19T06:41:36.916Z,95322.13
2023-02-19T06:44:06.238Z,95325.53
2023-02-19T06:46:37.120Z,95326.81
2023-02-19T06:49:06.627Z,95322.84
2023-02-19T06:51:36.113Z,95320.09
2023-02-19T06:54:05.466Z,95319.53
2023-02-19T06:56:36.068Z,95327.81
2023-02-19T06:59:08.563Z,95334.53
2023-02-19T07:01:39.873Z,95336.06
2023-02-19T07:04:09.395Z,95330.47
2023-02-19T07:06:39.148Z,95338.16
2023-02-19T07:09:09.659Z,95330.38
2023-02-19T07:11:40.616Z,95332.56
2023-02-19T07:14:15.440Z,95336.34
2023-02-19T07:16:47.623Z,95342.97
2023-02-19T07:19:17.275Z,95341.44
2023-02-19T07:21:46.296Z,95341.69
2023-02-19T07:24:15.430Z,95343.00
2023-02-19T07:26:44.544Z,95340.13
2023-02-19T07:29:13.686Z,95335.53
2023-02-19T07:31:42.970Z,95339.44
2023-02-19T07:34:13.475Z,95327.13
2023-02-19T07:36:42.589Z,95327.69
2023-02-19T07:39:14.736Z,95333.44
2023-02-19T07:41:43.797Z,95339.47
2023-02-19T07:44:20.196Z,95335.38
2023-02-19T07:46:49.174Z,95340.50
2023-02-19T07:49:19.808Z,95337.28
2023-02-19T07:51:48.812Z,95341.56
2023-02-19T07:54:17.835Z,95337.06
2023-02-19T07:56:46.803Z,95343.16
2023-02-19T07:59:16.175Z,95332.25
2023-02-19T08:02:02.729Z,95330.53
2023-02-19T08:04:33.587Z,95329.81
2023-02-19T08:07:02.594Z,95323.31
2023-02-19T08:09:32.619Z,95329.16
2023-02-19T08:12:19.167Z,95320.72
2023-02-19T08:14:48.358Z,95317.09
2023-02-19T08:17:18.790Z,95311.50
2023-02-19T08:19:49.348Z,95317.16
2023-02-19T08:22:18.683Z,95315.09
2023-02-19T08:24:47.662Z,95314.28
2023-02-19T08:27:16.767Z,95317.06
2023-02-19T08:29:45.830Z,95318.94
2023-02-19T08:32:15.016Z,95312.53
2023-02-19T08:34:44.426Z,95310.94
2023-02-19T08:37:14.990Z,95316.81
2023-02-19T08:39:44.016Z,95303.16
2023-02-19T08:42:13.431Z,95305.53
2023-02-19T08:44:43.060Z,95302.78
2023-02-19T08:47:12.368Z,95304.03
2023-02-19T08:49:41.457Z,95292.44
2023-02-19T08:52:10.570Z,95285.94
2023-02-19T08:54:41.037Z,95283.78
2023-02-19T08:57:10.347Z,95274.09
2023-02-19T08:59:39.414Z,95272.44
2023-02-19T09:02:08.577Z,95271.03
2023-02-19T09:04:38.544Z,95265.63
2023-02-19T09:07:09.946Z,95270.81
2023-02-19T09:09:41.457Z,95269.06
2023-02-19T09:12:12.579Z,95268.22
2023-02-19T09:14:42.394Z,95265.00
2023-02-19T09:17:11.898Z,95269.28
2023-02-19T09:19:41.243Z,95265.69
2023-02-19T09:22:10.854Z,95258.28
2023-02-19T09:24:41.441Z,95260.91
2023-02-19T09:27:11.114Z,95262.78
2023-02-19T09:29:40.314Z,95267.59
2023-02-19T09:32:09.528Z,95267.88
2023-02-19T09:34:39.612Z,95254.00
2023-02-19T09:37:09.125Z,95246.75
2023-02-19T09:39:38.548Z,95251.91
2023-02-19T09:42:15.644Z,95244.88
2023-02-19T09:44:48.854Z,95240.34
2023-02-19T09:47:20.767Z,95233.97
2023-02-19T09:49:52.463Z,95228.53
2023-02-19T09:52:27.813Z,95231.13
2023-02-19T09:54:59.657Z,95220.03
2023-02-19T09:57:32.705Z,95222.66
2023-02-19T10:00:05.534Z,95217.41
2023-02-19T10:02:35.081Z,95209.44
2023-02-19T10:05:06.417Z,95208.44
2023-02-19T10:07:40.671Z,95206.63
2023-02-19T10:10:26.116Z,95200.47
2023-02-19T10:13:01.298Z,95189.31
2023-02-19T10:15:34.926Z,95192.00
2023-02-19T10:18:05.778Z,95188.56
2023-02-19T10:20:35.582Z,95191.34
2023-02-19T10:23:06.979Z,95173.47
2023-02-19T10:25:37.189Z,95173.56
2023-02-19T10:28:15.048Z,95171.19
2023-02-19T10:30:45.265Z,95151.53
2023-02-19T10:33:16.448Z,95153.69
2023-02-19T10:35:57.398Z,95147.88
2023-02-19T10:38:31.283Z,95141.00
2023-02-19T10:41:07.951Z,95141.19
2023-02-19T10:43:42.610Z,95133.19
2023-02-19T10:46:19.407Z,95131.81
2023-02-19T10:48:53.822Z,95121.59
2023-02-19T10:51:25.718Z,95121.50
2023-02-19T10:54:06.944Z,95118.47
2023-02-19T10:56:38.805Z,95105.25
2023-02-19T10:59:25.805Z,95102.09
2023-02-19T11:01:59.958Z,95099.19
2023-02-19T11:04:34.230Z,95092.63
2023-02-19T11:07:10.973Z,95094.91
2023-02-19T11:09:42.976Z,95092.91
2023-02-19T11:12:13.928Z,95090.72
2023-02-19T11:14:46.141Z,95083.63
2023-02-19T11:17:25.907Z,95073.00
2023-02-19T11:19:57.699Z,95072.19
2023-02-19T11:22:33.013Z,95067.59
2023-02-19T11:25:07.031Z,95064.97
2023-02-19T11:27:36.221Z,95057.09
2023-02-19T11:30:36.481Z,95044.69
2023-02-19T11:33:34.105Z,95047.31
2023-02-19T11:36:31.081Z,95040.59
2023-02-19T11:39:04.268Z,95033.41
2023-02-19T11:42:00.901Z,95026.56
2023-02-19T11:44:46.974Z,95027.75
2023-02-19T11:47:48.852Z,95029.78
2023-02-19T11:50:24.618Z,95025.28
2023-02-19T11:53:05.886Z,95013.00
2023-02-19T11:55:53.030Z,95011.34
2023-02-19T11:59:01.178Z,95006.78
2023-02-19T12:01:53.241Z,94995.78
2023-02-19T12:05:02.575Z,94993.91
2023-02-19T12:08:08.866Z,94989.97
2023-02-19T12:10:46.794Z,94987.75
2023-02-19T12:13:28.545Z,94974.75
2023-02-19T12:16:13.464Z,94967.66
2023-02-19T12:19:19.994Z,94962.66
2023-02-19T12:22:04.797Z,94957.81
2023-02-19T12:25:00.770Z,94960.28
2023-02-19T12:27:42.275Z,94952.06
2023-02-19T12:30:33.406Z,94950.34
2023-02-19T12:33:22.240Z,94939.16
2023-02-19T12:36:02.489Z,94928.56
2023-02-19T12:38:38.287Z,94926.59
2023-02-19T12:41:22.978Z,94917.72
2023-02-19T12:43:59.464Z,94910.38
2023-02-19T12:46:34.065Z,94905.22
2023-02-19T12:49:09.583Z,94896.19
2023-02-19T12:51:45.555Z,94894.78
2023-02-19T12:54:24.012Z,94892.97
2023-02-19T12:56:58.237Z,94889.88
2023-02-19T12:59:34.454Z,94883.25
2023-02-19T13:02:15.352Z,94875.16
2023-02-19T13:04:49.538Z,94867.44
2023-02-19T13:07:23.143Z,94865.97
2023-02-19T13:09:59.512Z,94865.81
2023-02-19T13:12:34.500Z,94854.16
2023-02-19T13:15:09.414Z,94844.00
2023-02-19T13:17:45.609Z,94838.41
2023-02-19T13:20:20.793Z,94832.63
2023-02-19T13:23:19.483Z,94833.63
2023-02-19T13:26:04.097Z,94832.50
2023-02-19T13:28:51.952Z,94825.22
2023-02-19T13:31:57.265Z,94820.09
2023-02-19T13:34:43.543Z,94807.66
2023-02-19T13:37:13.525Z,94803.84
2023-02-19T13:39:50.354Z,94798.78
2023-02-19T13:42:29.163Z,94799.47
2023-02-19T13:44:59.050Z,94798.91
2023-02-19T13:47:51.296Z,94799.28
2023-02-19T13:50:23.999Z,94799.88
2023-02-19T13:52:53.838Z,94797.00
2023-02-19T13:55:48.797Z,94785.94
2023-02-19T13:58:51.250Z,94778.31
2023-02-19T14:02:16.159Z,94773.56
2023-02-19T14:04:54.257Z,94776.41
2023-02-19T14:07:51.879Z,94768.75
2023-02-19T14:10:54.999Z,94767.16
2023-02-19T14:14:06.843Z,94761.22
2023-02-19T14:17:24.141Z,94762.69
2023-02-19T14:20:01.209Z,94765.69
2023-02-19T14:23:13.729Z,94760.06
2023-02-19T14:25:56.605Z,94757.53
2023-02-19T14:28:36.583Z,94755.66
2023-02-19T14:31:17.812Z,94762.13
2023-02-19T14:33:51.391Z,94755.22
2023-02-19T14:36:33.000Z,94754.41
2023-02-19T14:39:05.730Z,94756.34
2023-02-19T14:41:39.879Z,94750.28
2023-02-19T14:44:16.103Z,94760.56
2023-02-19T14:46:52.908Z,94754.31
2023-02-19T14:49:29.621Z,94746.06
2023-02-19T14:52:01.526Z,94745.84
2023-02-19T14:54:41.430Z,94742.56
2023-02-19T14:57:17.870Z,94739.59
2023-02-19T14:59:59.044Z,94745.06
2023-02-19T15:02:30.111Z,94748.38
2023-02-19T15:05:01.043Z,94743.44
2023-02-19T15:07:33.236Z,94753.38
2023-02-19T15:10:05.947Z,94744.97
2023-02-19T15:12:42.686Z,94746.59
2023-02-19T15:15:20.242Z,94754.47
2023-02-19T15:17:50.236Z,94750.00
2023-02-19T15:20:24.406Z,94750.03
2023-02-19T15:22:54.701Z,94765.03
2023-02-19T15:25:28.380Z,94761.63
2023-02-19T15:27:57.629Z,94769.19
2023-02-19T15:30:29.744Z,94772.44
2023-02-19T15:33:00.784Z,94766.88
2023-02-19T15:35:33.678Z,94765.66
2023-02-19T15:38:03.145Z,94773.47
2023-02-19T15:40:33.406Z,94774.88
2023-02-19T15:43:02.735Z,94775.38
2023-02-19T15:45:41.474Z,94779.44
2023-02-19T15:48:15.690Z,94777.16
2023-02-19T15:50:50.065Z,94777.41
2023-02-19T15:53:23.860Z,94776.88
2023-02-19T15:56:02.321Z,94777.19
2023-02-19T15:58:38.288Z,94775.72
2023-02-19T16:01:15.556Z,94779.94
2023-02-19T16:03:45.309Z,94780.78
2023-02-19T16:06:18.069Z,94782.66
2023-02-19T16:08:48.739Z,94788.03
2023-02-19T16:11:30.361Z,94794.97
2023-02-19T16:14:25.680Z,94793.88
2023-02-19T16:16:57.670Z,94797.09
2023-02-19T16:19:29.532Z,94801.91
2023-02-19T16:22:01.179Z,94797.38
2023-02-19T16:24:34.243Z,94805.13
2023-02-19T16:27:04.716Z,94807.75
2023-02-19T16:29:35.596Z,94819.22
2023-02-19T16:32:08.402Z,94826.13
2023-02-19T16:34:43.055Z,94830.91
2023-02-19T16:37:37.320Z,94828.25
2023-02-19T16:40:52.627Z,94824.25
2023-02-19T16:43:40.920Z,94821.81
2023-02-19T16:46:14.498Z,94826.34
2023-02-19T16:48:43.804Z,94827.41
2023-02-19T16:51:19.578Z,94835.94
2023-02-19T16:53:50.207Z,94831.13
2023-02-19T16:56:23.145Z,94837.00
2023-02-19T16:58:52.440Z,94837.19
2023-02-19T17:01:21.684Z,94838.00
2023-02-19T17:03:51.853Z,94840.41
2023-02-19T17:06:21.276Z,94845.72
2023-02-19T17:08:51.974Z,94863.28
2023-02-19T17:11:21.186Z,94867.50
2023-02-19T17:13:50.412Z,94865.81
2023-02-19T17:16:21.425Z,94865.31
2023-02-19T17:18:50.788Z,94874.66
2023-02-19T17:21:22.744Z,94876.19
2023-02-19T17:23:54.245Z,94878.88
2023-02-19T17:26:27.184Z,94879.38
2023-02-19T17:28:57.877Z,94883.91
2023-02-19T17:31:27.611Z,94888.16
2023-02-19T17:33:57.151Z,94890.28
2023-02-19T17:36:30.376Z,94896.16
2023-02-19T17:39:00.910Z,94888.13
2023-02-19T17:41:31.198Z,94893.94
2023-02-19T17:44:00.475Z,94891.56
2023-02-19T17:46:29.919Z,94891.84
2023-02-19T17:48:59.264Z,94903.00
2023-02-19T17:51:28.339Z,94900.06
2023-02-19T17:53:57.512Z,94902.16
2023-02-19T17:56:29.588Z,94908.97
2023-02-19T17:58:59.271Z,94912.66
2023-02-19T18:01:28.570Z,94915.34
2023-02-19T18:03:58.095Z,94910.81
2023-02-19T18:06:27.224Z,94914.56
2023-02-19T18:08:56.457Z,94922.53
2023-02-19T18:11:25.949Z,94918.06
2023-02-19T18:13:56.569Z,94923.31
2023-02-19T18:16:25.958Z,94923.63
2023-02-19T18:18:55.264Z,94932.81
2023-02-19T18:21:25.776Z,94945.81
2023-02-19T18:23:54.955Z,94933.88
2023-02-19T18:26:24.926Z,94940.13
2023-02-19T18:28:55.716Z,94943.31
2023-02-19T18:31:24.930Z,94943.41
2023-02-19T18:33:54.168Z,94946.63
2023-02-19T18:36:23.371Z,94943.63
2023-02-19T18:38:52.378Z,94945.56
2023-02-19T18:41:21.890Z,94952.47
2023-02-19T18:43:51.029Z,94953.81
2023-02-19T18:46:23.129Z,94948.25
2023-02-19T18:48:52.559Z,94952.59
2023-02-19T18:51:24.037Z,94951.16
2023-02-19T18:53:53.304Z,94957.25
2023-02-19T18:56:23.292Z,94963.91
2023-02-19T18:58:52.474Z,94971.09
2023-02-19T19:01:23.287Z,94974.84
2023-02-19T19:03:52.493Z,94970.56
2023-02-19T19:06:21.538Z,94976.34
2023-02-19T19:08:50.971Z,94969.16
2023-02-19T19:11:21.299Z,94961.91
2023-02-19T19:13:50.801Z,94978.19
2023-02-19T19:16:19.984Z,94974.03
2023-02-19T19:18:50.856Z,94981.75
2023-02-19T19:21:23.941Z,94987.88
2023-02-19T19:23:53.291Z,94991.59
2023-02-19T19:26:22.409Z,94997.69
2023-02-19T19:28:52.035Z,94996.59
2023-02-19T19:31:22.535Z,95010.22
2023-02-19T19:33:53.997Z,95006.41
2023-02-19T19:36:24.934Z,95005.34
2023-02-19T19:38:54.364Z,95010.09
2023-02-19T19:41:23.577Z,95001.28
2023-02-19T19:43:52.795Z,95018.16
2023-02-19T19:46:22.218Z,95012.84
2023-02-19T19:48:54.245Z,95027.06
2023-02-19T19:51:23.579Z,95022.81
2023-02-19T19:53:52.852Z,95029.19
2023-02-19T19:56:21.903Z,95029.81
2023-02-19T19:58:51.168Z,95032.19
2023-02-19T20:01:21.440Z,95036.84
2023-02-19T20:03:51.331Z,95038.31
2023-02-19T20:06:28.130Z,95044.72
2023-02-19T20:08:57.692Z,95050.69
2023-02-19T20:11:26.763Z,95046.16
2023-02-19T20:13:55.890Z,95041.28
2023-02-19T20:16:30.609Z,95040.38
2023-02-19T20:18:59.877Z,95035.47
2023-02-19T20:21:30.523Z,95045.84
2023-02-19T20:23:59.954Z,95056.63
2023-02-19T20:26:30.308Z,95067.75
2023-02-19T20:29:00.222Z,95074.25
2023-02-19T20:31:32.845Z,95082.69
2023-02-19T20:34:02.464Z,95078.00
2023-02-19T20:36:33.360Z,95075.81
2023-02-19T20:39:02.335Z,95065.47
2023-02-19T20:41:31.558Z,95074.78
2023-02-19T20:44:00.651Z,95070.13
2023-02-19T20:46:30.108Z,95079.56
2023-02-19T20:48:59.216Z,95075.13
2023-02-19T20:51:28.448Z,95078.41
2023-02-19T20:53:59.120Z,95087.34
2023-02-19T20:56:28.173Z,95077.00
2023-02-19T20:58:57.537Z,95093.41
2023-02-19T21:01:28.137Z,95094.34
2023-02-19T21:03:57.318Z,95088.50
2023-02-19T21:06:26.589Z,95086.72
2023-02-19T21:08:55.791Z,95082.47
2023-02-19T21:11:26.767Z,95092.75
2023-02-19T21:13:59.189Z,95085.19
2023-02-19T21:16:28.958Z,95086.81
2023-02-19T21:18:58.374Z,95087.34
2023-02-19T21:21:27.698Z,95084.94
2023-02-19T21:23:57.761Z,95090.72
2023-02-19T21:26:35.855Z,95098.75
2023-02-19T21:29:05.915Z,95075.75
2023-02-19T21:31:39.220Z,95094.72
2023-02-19T21:34:08.769Z,95096.91
2023-02-19T21:36:38.582Z,95112.50
2023-02-19T21:39:09.273Z,95106.28
2023-02-19T21:41:39.877Z,95109.59
2023-02-19T21:44:08.985Z,95114.78
2023-02-19T21:46:38.249Z,95113.53
2023-02-19T21:49:07.641Z,95104.16
2023-02-19T21:51:38.569Z,95119.44
2023-02-19T21:54:09.024Z,95119.31
2023-02-19T21:56:39.731Z,95119.63
2023-02-19T21:59:08.930Z,95125.38
2023-02-19T22:01:40.169Z,95131.88
2023-02-19T22:04:11.173Z,95138.16
2023-02-19T22:06:40.812Z,95145.88
2023-02-19T22:09:10.519Z,95151.31
2023-02-19T22:11:40.841Z,95161.03
2023-02-19T22:14:09.769Z,95145.56
2023-02-19T22:16:38.797Z,95156.19
2023-02-19T22:19:07.974Z,95173.50
2023-02-19T22:21:37.210Z,95171.09
2023-02-19T22:24:06.643Z,95174.78
2023-02-19T22:26:36.824Z,95176.88
2023-02-19T22:29:08.548Z,95177.91
2023-02-19T22:31:37.470Z,95190.34
2023-02-19T22:34:07.046Z,95187.13
2023-02-19T22:36:37.672Z,95189.44
2023-02-19T22:39:08.476Z,95190.38
2023-02-19T22:41:37.412Z,95185.41
2023-02-19T22:44:08.047Z,95181.72
2023-02-19T22:46:37.217Z,95182.31
2023-02-19T22:49:07.580Z,95183.56
2023-02-19T22:51:36.988Z,95184.97
2023-02-19T22:54:06.057Z,95187.38
2023-02-19T22:56:34.966Z,95181.28
2023-02-19T22:59:03.946Z,95177.34
2023-02-19T23:01:34.353Z,95180.56
2023-02-19T23:04:03.440Z,95172.06
2023-02-19T23:06:33.963Z,95174.03
2023-02-19T23:09:06.412Z,95177.50
2023-02-19T23:11:37.529Z,95174.25
2023-02-19T23:14:06.866Z,95167.00
2023-02-19T23:16:37.369Z,95166.31
2023-02-19T23:19:08.330Z,95172.31
2023-02-19T23:21:37.594Z,95176.47
2023-02-19T23:24:07.197Z,95187.28
2023-02-19T23:26:36.580Z,95190.84
2023-02-19T23:29:05.678Z,95186.09
2023-02-19T23:31:34.990Z,95185.44
2023-02-19T23:34:08.150Z,95186.69
2023-02-19T23:36:41.337Z,95186.25
2023-02-19T23:39:11.449Z,95197.41
2023-02-19T23:41:40.629Z,95193.50
2023-02-19T23:44:09.745Z,95207.31
2023-02-19T23:46:38.733Z,95217.91
2023-02-19T23:49:09.282Z,95219.06
2023-02-19T23:51:38.506Z,95220.44
2023-02-19T23:54:07.937Z,95224.47
2023-02-19T23:56:37.442Z,95229.56
2023-02-19T23:59:06.862Z,95217.44
